Cheyenne — 9HAK5 — position and weather

sailwx.info

Track history (hours):
 
Tides and Currents Weather Stations Pressure Air Temp Water Temp Dewpoint Dewpoint Depression Visibility Wind Speed Wind Dir Waves Ship Positions

Cheyenne

Last reported at 2014-Jul-30 16:22 UTC. Time now 2014-Aug-01 07:58 UTC.
Position N 33°54' E 035°31'.

Length 133 m; draft 3.9 m.

Type: Cargo ship. MMSI: 249607000.

Date/timePositionNaut miles runAvg speedWind from/ knotsBaromVisibWave heightAir tempDewpointWater temp
2014-Jul-30 16:22N 33°54' E 035°31'1 0.0
2014-Jul-28 15:07N 33°55' E 035°31'  
2014-Jul-24 16:22N 33°55' E 035°31'73 5.2
2014-Jul-24 02:22N 34°15' E 034°06'25 8.4
2014-Jul-23 23:23N 34°22' E 033°37'342 8.0
2014-Jul-22 04:21N 36°27' E 027°06'15 8.1
2014-Jul-22 02:29N 36°39' E 026°54'10 8.5
2014-Jul-22 01:21N 36°46' E 026°47'7 8.5
2014-Jul-22 00:29N 36°52' E 026°42'17 8.1
2014-Jul-21 22:22N 37°05' E 026°28'7 8.1
2014-Jul-21 21:33N 37°10' E 026°22'8 8.2
2014-Jul-21 20:32N 37°16' E 026°14'2 8.4
2014-Jul-21 20:17N 37°17' E 026°12'6 8.1
2014-Jul-21 19:33N 37°21' E 026°07'8 7.8
2014-Jul-21 18:33N 37°26' E 025°60'8 7.8
2014-Jul-21 17:33N 37°33' E 025°54'17 8.1
2014-Jul-21 15:25N 37°50' E 025°51'45 8.4
2014-Jul-21 10:05N 38°34' E 025°45'6 8.7
2014-Jul-21 09:24N 38°40' E 025°45'  
Track history (hours):
 
Tides and Currents Weather Stations Pressure Air Temp Water Temp Dewpoint Dewpoint Depression Visibility Wind Speed Wind Dir Waves Ship Positions

Cheyenne

Last reported at 2014-Jul-30 16:22 UTC. Time now 2014-Aug-01 07:58 UTC.
Position N 33°54' E 035°31'.

Length 133 m; draft 3.9 m.

Type: Cargo ship. MMSI: 249607000.

Date/timePositionNaut miles runAvg speedWind from/ knotsBaromVisibWave heightAir tempDewpointWater temp
2014-Jul-30 16:22N 33°54' E 035°31'1 0.0
2014-Jul-28 15:07N 33°55' E 035°31'  
2014-Jul-24 16:22N 33°55' E 035°31'73 5.2
2014-Jul-24 02:22N 34°15' E 034°06'25 8.4
2014-Jul-23 23:23N 34°22' E 033°37'342 8.0
2014-Jul-22 04:21N 36°27' E 027°06'15 8.1
2014-Jul-22 02:29N 36°39' E 026°54'10 8.5
2014-Jul-22 01:21N 36°46' E 026°47'7 8.5
2014-Jul-22 00:29N 36°52' E 026°42'17 8.1
2014-Jul-21 22:22N 37°05' E 026°28'7 8.1
2014-Jul-21 21:33N 37°10' E 026°22'8 8.2
2014-Jul-21 20:32N 37°16' E 026°14'2 8.4
2014-Jul-21 20:17N 37°17' E 026°12'6 8.1
2014-Jul-21 19:33N 37°21' E 026°07'8 7.8
2014-Jul-21 18:33N 37°26' E 025°60'8 7.8
2014-Jul-21 17:33N 37°33' E 025°54'17 8.1
2014-Jul-21 15:25N 37°50' E 025°51'45 8.4
2014-Jul-21 10:05N 38°34' E 025°45'6 8.7
2014-Jul-21 09:24N 38°40' E 025°45'  

Dump ship's entire track history